sensor_id;sensor_type;location;lat;lon;timestamp;pressure;altitude;pressure_sealevel;temperature;humidity
24666;BME280;29726;53.532;-1.478;2023-04-05T00:02:07;101184.88;;;16.67;80.41
24666;BME280;29726;53.532;-1.478;2023-04-05T00:04:53;101193.34;;;16.67;80.56
24666;BME280;29726;53.532;-1.478;2023-04-05T00:07:40;101181.72;;;16.60;80.40
24666;BME280;29726;53.532;-1.478;2023-04-05T00:10:24;101185.31;;;16.60;80.45
24666;BME280;29726;53.532;-1.478;2023-04-05T00:13:09;101193.00;;;16.60;80.55
24666;BME280;29726;53.532;-1.478;2023-04-05T00:15:53;101184.47;;;16.54;80.58
24666;BME280;29726;53.532;-1.478;2023-04-05T00:18:40;101154.97;;;16.35;80.44
24666;BME280;29726;53.532;-1.478;2023-04-05T00:21:32;101174.38;;;16.48;80.65
24666;BME280;29726;53.532;-1.478;2023-04-05T00:24:17;101169.22;;;16.46;80.69
24666;BME280;29726;53.532;-1.478;2023-04-05T00:27:01;101167.66;;;16.45;80.75
24666;BME280;29726;53.532;-1.478;2023-04-05T00:29:45;101169.72;;;16.45;80.89
24666;BME280;29726;53.532;-1.478;2023-04-05T00:32:29;101159.16;;;16.40;80.81
24666;BME280;29726;53.532;-1.478;2023-04-05T00:35:13;101160.16;;;16.37;80.78
24666;BME280;29726;53.532;-1.478;2023-04-05T00:37:57;101159.53;;;16.33;80.82
24666;BME280;29726;53.532;-1.478;2023-04-05T00:40:41;101122.88;;;16.13;80.75
24666;BME280;29726;53.532;-1.478;2023-04-05T00:43:24;101146.41;;;16.30;80.77
24666;BME280;29726;53.532;-1.478;2023-04-05T00:46:08;101112.00;;;16.06;80.69
24666;BME280;29726;53.532;-1.478;2023-04-05T00:48:53;101115.63;;;16.06;80.83
24666;BME280;29726;53.532;-1.478;2023-04-05T00:51:37;101147.13;;;16.25;80.89
24666;BME280;29726;53.532;-1.478;2023-04-05T00:54:22;101130.06;;;16.14;80.90
24666;BME280;29726;53.532;-1.478;2023-04-05T00:57:06;101132.94;;;16.19;80.87
24666;BME280;29726;53.532;-1.478;2023-04-05T00:59:51;101139.09;;;16.18;80.76
24666;BME280;29726;53.532;-1.478;2023-04-05T01:02:40;101123.84;;;16.10;80.63
24666;BME280;29726;53.532;-1.478;2023-04-05T01:05:54;101125.09;;;16.09;80.71
24666;BME280;29726;53.532;-1.478;2023-04-05T01:09:07;101138.22;;;16.12;80.82
24666;BME280;29726;53.532;-1.478;2023-04-05T01:11:53;101119.41;;;16.03;80.94
24666;BME280;29726;53.532;-1.478;2023-04-05T01:14:52;101124.06;;;16.06;80.95
24666;BME280;29726;53.532;-1.478;2023-04-05T01:17:36;101122.72;;;16.02;81.02
24666;BME280;29726;53.532;-1.478;2023-04-05T01:20:22;101110.59;;;15.96;80.96
24666;BME280;29726;53.532;-1.478;2023-04-05T01:26:32;101102.63;;;15.94;81.12
24666;BME280;29726;53.532;-1.478;2023-04-05T01:36:11;101103.03;;;15.87;81.14
24666;BME280;29726;53.532;-1.478;2023-04-05T01:39:00;101095.28;;;15.82;81.07
24666;BME280;29726;53.532;-1.478;2023-04-05T01:41:46;101091.22;;;15.83;81.14
24666;BME280;29726;53.532;-1.478;2023-04-05T01:44:30;101091.97;;;15.84;81.17
24666;BME280;29726;53.532;-1.478;2023-04-05T01:47:14;101078.88;;;15.81;81.26
24666;BME280;29726;53.532;-1.478;2023-04-05T01:49:58;101071.81;;;15.71;81.27
24666;BME280;29726;53.532;-1.478;2023-04-05T01:52:42;101082.66;;;15.78;81.40
24666;BME280;29726;53.532;-1.478;2023-04-05T01:55:26;101072.09;;;15.73;81.38
24666;BME280;29726;53.532;-1.478;2023-04-05T01:58:10;101073.66;;;15.74;81.61
24666;BME280;29726;53.532;-1.478;2023-04-05T02:00:54;101069.00;;;15.71;81.40
24666;BME280;29726;53.532;-1.478;2023-04-05T02:03:38;101073.84;;;15.70;81.57
24666;BME280;29726;53.532;-1.478;2023-04-05T02:06:23;101073.56;;;15.68;81.48
24666;BME280;29726;53.532;-1.478;2023-04-05T02:09:06;101085.91;;;15.71;81.59
24666;BME280;29726;53.532;-1.478;2023-04-05T02:11:50;101071.72;;;15.65;81.50
24666;BME280;29726;53.532;-1.478;2023-04-05T02:14:34;101076.56;;;15.65;81.69
24666;BME280;29726;53.532;-1.478;2023-04-05T02:17:18;101080.19;;;15.65;81.69
24666;BME280;29726;53.532;-1.478;2023-04-05T02:20:03;101041.00;;;15.47;81.70
24666;BME280;29726;53.532;-1.478;2023-04-05T02:22:50;101042.34;;;15.52;81.72
24666;BME280;29726;53.532;-1.478;2023-04-05T02:25:34;101059.63;;;15.59;81.70
24666;BME280;29726;53.532;-1.478;2023-04-05T02:28:18;101049.34;;;15.56;81.82
24666;BME280;29726;53.532;-1.478;2023-04-05T02:31:07;101063.69;;;15.58;81.83
24666;BME280;29726;53.532;-1.478;2023-04-05T02:33:51;101063.09;;;15.54;81.97
24666;BME280;29726;53.532;-1.478;2023-04-05T02:36:37;101055.16;;;15.53;82.09
24666;BME280;29726;53.532;-1.478;2023-04-05T02:39:21;101046.63;;;15.47;82.14
24666;BME280;29726;53.532;-1.478;2023-04-05T02:42:05;101046.16;;;15.49;82.17
24666;BME280;29726;53.532;-1.478;2023-04-05T02:44:50;101045.88;;;15.47;82.09
24666;BME280;29726;53.532;-1.478;2023-04-05T02:47:34;101037.91;;;15.45;82.20
24666;BME280;29726;53.532;-1.478;2023-04-05T02:50:18;101033.72;;;15.41;82.17
24666;BME280;29726;53.532;-1.478;2023-04-05T02:53:03;101032.47;;;15.42;82.37
24666;BME280;29726;53.532;-1.478;2023-04-05T02:55:54;101026.06;;;15.41;82.32
24666;BME280;29726;53.532;-1.478;2023-04-05T02:58:38;101020.72;;;15.43;82.48
24666;BME280;29726;53.532;-1.478;2023-04-05T03:01:24;101020.91;;;15.40;82.37
24666;BME280;29726;53.532;-1.478;2023-04-05T03:04:08;101022.69;;;15.37;82.52
24666;BME280;29726;53.532;-1.478;2023-04-05T03:06:52;101017.53;;;15.36;82.57
24666;BME280;29726;53.532;-1.478;2023-04-05T03:09:37;101011.53;;;15.28;82.56
24666;BME280;29726;53.532;-1.478;2023-04-05T03:12:21;101020.56;;;15.32;82.70
24666;BME280;29726;53.532;-1.478;2023-04-05T03:15:06;101002.00;;;15.26;82.60
24666;BME280;29726;53.532;-1.478;2023-04-05T03:17:50;100996.56;;;15.22;82.68
24666;BME280;29726;53.532;-1.478;2023-04-05T03:20:36;101013.88;;;15.30;82.79
24666;BME280;29726;53.532;-1.478;2023-04-05T03:23:30;101012.59;;;15.31;82.77
24666;BME280;29726;53.532;-1.478;2023-04-05T03:26:14;101008.41;;;15.26;82.99
24666;BME280;29726;53.532;-1.478;2023-04-05T03:28:58;101002.00;;;15.26;83.04
24666;BME280;29726;53.532;-1.478;2023-04-05T03:31:42;101001.22;;;15.25;82.98
24666;BME280;29726;53.532;-1.478;2023-04-05T03:34:26;100967.91;;;15.04;83.05
24666;BME280;29726;53.532;-1.478;2023-04-05T03:37:11;101003.47;;;15.21;83.25
24666;BME280;29726;53.532;-1.478;2023-04-05T03:39:55;100987.75;;;15.15;83.25
24666;BME280;29726;53.532;-1.478;2023-04-05T03:42:39;100995.22;;;15.18;83.20
24666;BME280;29726;53.532;-1.478;2023-04-05T03:45:23;100987.47;;;15.13;83.22
24666;BME280;29726;53.532;-1.478;2023-04-05T03:48:08;100980.59;;;15.14;83.32
24666;BME280;29726;53.532;-1.478;2023-04-05T03:50:51;100979.53;;;15.11;83.42
24666;BME280;29726;53.532;-1.478;2023-04-05T03:53:35;100983.09;;;15.12;83.39
24666;BME280;29726;53.532;-1.478;2023-04-05T03:56:20;100989.03;;;15.14;83.29
24666;BME280;29726;53.532;-1.478;2023-04-05T03:59:04;100978.75;;;15.11;83.37
24666;BME280;29726;53.532;-1.478;2023-04-05T04:01:48;100985.63;;;15.10;83.49
24666;BME280;29726;53.532;-1.478;2023-04-05T04:04:32;100981.75;;;15.07;83.38
24666;BME280;29726;53.532;-1.478;2023-04-05T04:07:16;100976.06;;;15.02;83.64
24666;BME280;29726;53.532;-1.478;2023-04-05T04:10:00;100985.06;;;15.06;83.57
24666;BME280;29726;53.532;-1.478;2023-04-05T04:12:45;100968.59;;;14.99;83.55
24666;BME280;29726;53.532;-1.478;2023-04-05T04:15:29;100961.81;;;14.91;83.62
24666;BME280;29726;53.532;-1.478;2023-04-05T04:18:13;100962.88;;;14.94;83.62
24666;BME280;29726;53.532;-1.478;2023-04-05T04:20:57;100976.81;;;15.02;83.76
24666;BME280;29726;53.532;-1.478;2023-04-05T04:23:41;100969.84;;;14.98;83.66
24666;BME280;29726;53.532;-1.478;2023-04-05T04:26:28;100963.91;;;14.96;83.58
24666;BME280;29726;53.532;-1.478;2023-04-05T04:29:12;100966.66;;;14.91;83.73
24666;BME280;29726;53.532;-1.478;2023-04-05T04:31:58;100955.19;;;14.94;83.85
24666;BME280;29726;53.532;-1.478;2023-04-05T04:34:43;100950.97;;;14.84;83.93
24666;BME280;29726;53.532;-1.478;2023-04-05T04:37:27;100944.66;;;14.89;84.09
24666;BME280;29726;53.532;-1.478;2023-04-05T04:40:14;100943.59;;;14.87;84.08
24666;BME280;29726;53.532;-1.478;2023-04-05T04:43:00;100922.38;;;14.71;84.00
24666;BME280;29726;53.532;-1.478;2023-04-05T04:45:46;100949.97;;;14.87;84.00
24666;BME280;29726;53.532;-1.478;2023-04-05T04:48:30;100946.59;;;14.83;84.22
24666;BME280;29726;53.532;-1.478;2023-04-05T04:51:16;100951.25;;;14.86;84.18
24666;BME280;29726;53.532;-1.478;2023-04-05T04:54:00;100946.59;;;14.83;84.24
24666;BME280;29726;53.532;-1.478;2023-04-05T04:56:44;100943.00;;;14.83;84.18
24666;BME280;29726;53.532;-1.478;2023-04-05T04:59:28;100943.50;;;14.81;84.29
24666;BME280;29726;53.532;-1.478;2023-04-05T05:02:12;100944.75;;;14.80;84.31
24666;BME280;29726;53.532;-1.478;2023-04-05T05:04:56;100947.75;;;14.77;84.45
24666;BME280;29726;53.532;-1.478;2023-04-05T05:07:40;100937.50;;;14.74;84.38
24666;BME280;29726;53.532;-1.478;2023-04-05T05:10:25;100938.06;;;14.78;84.36
24666;BME280;29726;53.532;-1.478;2023-04-05T05:13:09;100929.75;;;14.69;84.34
24666;BME280;29726;53.532;-1.478;2023-04-05T05:15:53;100928.47;;;14.70;84.51
24666;BME280;29726;53.532;-1.478;2023-04-05T05:18:37;100936.22;;;14.75;84.55
24666;BME280;29726;53.532;-1.478;2023-04-05T05:21:24;100931.06;;;14.73;84.68
24666;BME280;29726;53.532;-1.478;2023-04-05T05:24:09;100917.13;;;14.64;84.52
24666;BME280;29726;53.532;-1.478;2023-04-05T05:26:53;100921.03;;;14.67;84.67
24666;BME280;29726;53.532;-1.478;2023-04-05T05:29:37;100928.88;;;14.63;84.77
24666;BME280;29726;53.532;-1.478;2023-04-05T05:32:21;100930.50;;;14.69;84.60
24666;BME280;29726;53.532;-1.478;2023-04-05T05:35:05;100935.16;;;14.72;84.76
24666;BME280;29726;53.532;-1.478;2023-04-05T05:37:51;100924.88;;;14.69;84.83
24666;BME280;29726;53.532;-1.478;2023-04-05T05:40:35;100896.22;;;14.51;84.65
24666;BME280;29726;53.532;-1.478;2023-04-05T05:43:19;100923.56;;;14.65;84.87
24666;BME280;29726;53.532;-1.478;2023-04-05T05:46:19;100923.03;;;14.66;84.95
24666;BME280;29726;53.532;-1.478;2023-04-05T05:49:03;100928.38;;;14.64;84.91
24666;BME280;29726;53.532;-1.478;2023-04-05T05:51:47;100871.91;;;14.33;84.83
24666;BME280;29726;53.532;-1.478;2023-04-05T05:54:31;100926.84;;;14.63;85.15
24666;BME280;29726;53.532;-1.478;2023-04-05T05:57:15;100923.25;;;14.63;85.26
24666;BME280;29726;53.532;-1.478;2023-04-05T05:59:59;100918.13;;;14.61;85.20
24666;BME280;29726;53.532;-1.478;2023-04-05T06:02:43;100913.47;;;14.58;85.06
24666;BME280;29726;53.532;-1.478;2023-04-05T06:05:27;100915.59;;;14.63;85.39
24666;BME280;29726;53.532;-1.478;2023-04-05T06:08:11;100914.34;;;14.64;85.29
24666;BME280;29726;53.532;-1.478;2023-04-05T06:10:56;100909.97;;;14.63;85.44
24666;BME280;29726;53.532;-1.478;2023-04-05T06:13:40;100906.31;;;14.57;85.41
24666;BME280;29726;53.532;-1.478;2023-04-05T06:16:24;100905.81;;;14.59;85.48
24666;BME280;29726;53.532;-1.478;2023-04-05T06:19:08;100880.22;;;14.42;85.73
24666;BME280;29726;53.532;-1.478;2023-04-05T06:21:53;100895.06;;;14.57;85.87
24666;BME280;29726;53.532;-1.478;2023-04-05T06:24:37;100905.31;;;14.60;85.87
24666;BME280;29726;53.532;-1.478;2023-04-05T06:27:21;100906.59;;;14.59;85.99
24666;BME280;29726;53.532;-1.478;2023-04-05T06:30:06;100915.31;;;14.61;86.04
24666;BME280;29726;53.532;-1.478;2023-04-05T06:32:50;100906.31;;;14.57;86.15
24666;BME280;29726;53.532;-1.478;2023-04-05T06:35:37;100895.75;;;14.52;86.09
24666;BME280;29726;53.532;-1.478;2023-04-05T06:38:21;100895.75;;;14.52;86.07
24666;BME280;29726;53.532;-1.478;2023-04-05T06:41:05;100902.91;;;14.53;86.27
24666;BME280;29726;53.532;-1.478;2023-04-05T06:43:49;100900.09;;;14.53;86.27
24666;BME280;29726;53.532;-1.478;2023-04-05T06:46:33;100910.44;;;14.62;86.24
24666;BME280;29726;53.532;-1.478;2023-04-05T06:49:17;100899.88;;;14.57;86.36
24666;BME280;29726;53.532;-1.478;2023-04-05T06:52:01;100907.34;;;14.60;86.58
24666;BME280;29726;53.532;-1.478;2023-04-05T06:54:46;100903.97;;;14.56;86.90
24666;BME280;29726;53.532;-1.478;2023-04-05T06:57:30;100899.59;;;14.55;86.76
24666;BME280;29726;53.532;-1.478;2023-04-05T07:00:15;100897.59;;;14.55;86.96
24666;BME280;29726;53.532;-1.478;2023-04-05T07:03:00;100900.97;;;14.59;87.00
24666;BME280;29726;53.532;-1.478;2023-04-05T07:05:54;100903.59;;;14.63;87.18
24666;BME280;29726;53.532;-1.478;2023-04-05T07:08:39;100896.59;;;14.58;87.18
24666;BME280;29726;53.532;-1.478;2023-04-05T07:11:23;100903.00;;;14.59;87.50
24666;BME280;29726;53.532;-1.478;2023-04-05T07:14:07;100893.31;;;14.60;87.43
24666;BME280;29726;53.532;-1.478;2023-04-05T07:16:51;100902.81;;;14.62;87.70
24666;BME280;29726;53.532;-1.478;2023-04-05T07:19:35;100874.91;;;14.44;87.79
24666;BME280;29726;53.532;-1.478;2023-04-05T07:22:19;100894.56;;;14.59;88.06
24666;BME280;29726;53.532;-1.478;2023-04-05T07:25:03;100891.19;;;14.55;88.16
24666;BME280;29726;53.532;-1.478;2023-04-05T07:27:48;100889.22;;;14.61;88.41
24666;BME280;29726;53.532;-1.478;2023-04-05T07:30:32;100901.06;;;14.65;88.57
24666;BME280;29726;53.532;-1.478;2023-04-05T07:33:16;100888.19;;;14.58;88.80
24666;BME280;29726;53.532;-1.478;2023-04-05T07:36:00;100882.28;;;14.56;89.20
24666;BME280;29726;53.532;-1.478;2023-04-05T07:38:46;100889.03;;;14.64;89.45
24666;BME280;29726;53.532;-1.478;2023-04-05T07:41:30;100890.59;;;14.65;89.79
24666;BME280;29726;53.532;-1.478;2023-04-05T07:44:17;100884.41;;;14.61;90.08
24666;BME280;29726;53.532;-1.478;2023-04-05T07:47:01;100853.22;;;14.45;90.25
24666;BME280;29726;53.532;-1.478;2023-04-05T07:49:46;100879.53;;;14.62;90.08
24666;BME280;29726;53.532;-1.478;2023-04-05T07:52:30;100894.25;;;14.71;90.08
24666;BME280;29726;53.532;-1.478;2023-04-05T07:55:14;100893.50;;;14.71;90.42
24666;BME280;29726;53.532;-1.478;2023-04-05T07:58:00;100875.50;;;14.63;90.33
24666;BME280;29726;53.532;-1.478;2023-04-05T08:00:44;100880.91;;;14.66;90.46
24666;BME280;29726;53.532;-1.478;2023-04-05T08:03:28;100883.22;;;14.68;90.55
24666;BME280;29726;53.532;-1.478;2023-04-05T08:06:15;100893.31;;;14.74;90.32
24666;BME280;29726;53.532;-1.478;2023-04-05T08:09:02;100883.00;;;14.71;91.09
24666;BME280;29726;53.532;-1.478;2023-04-05T08:11:48;100883.31;;;14.73;91.28
24666;BME280;29726;53.532;-1.478;2023-04-05T08:14:32;100884.28;;;14.70;91.18
24666;BME280;29726;53.532;-1.478;2023-04-05T08:17:16;100870.22;;;14.70;91.17
24666;BME280;29726;53.532;-1.478;2023-04-05T08:20:00;100858.69;;;14.68;91.44
24666;BME280;29726;53.532;-1.478;2023-04-05T08:22:44;100863.94;;;14.75;92.19
24666;BME280;29726;53.532;-1.478;2023-04-05T08:25:28;100852.31;;;14.68;92.30
24666;BME280;29726;53.532;-1.478;2023-04-05T08:28:12;100868.31;;;14.76;92.04
24666;BME280;29726;53.532;-1.478;2023-04-05T08:30:56;100861.88;;;14.76;92.13
24666;BME280;29726;53.532;-1.478;2023-04-05T08:33:40;100858.88;;;14.79;92.71
24666;BME280;29726;53.532;-1.478;2023-04-05T08:36:24;100823.28;;;14.56;92.95
24666;BME280;29726;53.532;-1.478;2023-04-05T08:39:09;100857.06;;;14.76;92.64
24666;BME280;29726;53.532;-1.478;2023-04-05T08:42:01;100855.56;;;14.81;93.04
24666;BME280;29726;53.532;-1.478;2023-04-05T08:44:50;100849.19;;;14.80;93.27
24666;BME280;29726;53.532;-1.478;2023-04-05T08:47:38;100847.94;;;14.81;93.51
24666;BME280;29726;53.532;-1.478;2023-04-05T08:50:22;100840.75;;;14.80;93.59
24666;BME280;29726;53.532;-1.478;2023-04-05T08:53:07;100842.88;;;14.85;93.73
24666;BME280;29726;53.532;-1.478;2023-04-05T08:55:55;100848.50;;;14.85;93.62
24666;BME280;29726;53.532;-1.478;2023-04-05T08:58:44;100834.91;;;14.84;93.87
24666;BME280;29726;53.532;-1.478;2023-04-05T09:01:36;100843.66;;;14.86;94.14
24666;BME280;29726;53.532;-1.478;2023-04-05T09:04:21;100836.00;;;14.86;94.24
24666;BME280;29726;53.532;-1.478;2023-04-05T09:07:07;100828.25;;;14.81;94.19
24666;BME280;29726;53.532;-1.478;2023-04-05T09:09:52;100844.22;;;14.90;94.24
24666;BME280;29726;53.532;-1.478;2023-04-05T09:12:38;100829.53;;;14.80;94.24
24666;BME280;29726;53.532;-1.478;2023-04-05T09:15:24;100836.00;;;14.86;94.34
24666;BME280;29726;53.532;-1.478;2023-04-05T09:18:10;100835.28;;;14.91;94.36
24666;BME280;29726;53.532;-1.478;2023-04-05T09:21:04;100816.03;;;14.84;94.51
24666;BME280;29726;53.532;-1.478;2023-04-05T09:23:52;100826.84;;;14.91;94.55
24666;BME280;29726;53.532;-1.478;2023-04-05T09:26:36;100824.03;;;14.91;94.77
24666;BME280;29726;53.532;-1.478;2023-04-05T09:29:30;100821.22;;;14.91;94.93
24666;BME280;29726;53.532;-1.478;2023-04-05T09:32:15;100829.47;;;14.95;95.17
24666;BME280;29726;53.532;-1.478;2023-04-05T09:35:01;100822.03;;;14.92;95.20
24666;BME280;29726;53.532;-1.478;2023-04-05T09:37:54;100823.84;;;14.95;95.40
24666;BME280;29726;53.532;-1.478;2023-04-05T09:40:48;100819.78;;;14.96;95.41
24666;BME280;29726;53.532;-1.478;2023-04-05T09:43:38;100806.13;;;14.89;95.48
24666;BME280;29726;53.532;-1.478;2023-04-05T09:46:32;100819.28;;;14.97;95.86
24666;BME280;29726;53.532;-1.478;2023-04-05T09:49:30;100810.06;;;14.97;96.52
24666;BME280;29726;53.532;-1.478;2023-04-05T09:52:19;100806.78;;;14.98;97.00
24666;BME280;29726;53.532;-1.478;2023-04-05T09:55:04;100798.03;;;14.96;97.19
24666;BME280;29726;53.532;-1.478;2023-04-05T09:57:49;100814.72;;;14.99;97.07
24666;BME280;29726;53.532;-1.478;2023-04-05T10:00:35;100811.69;;;15.03;97.33
24666;BME280;29726;53.532;-1.478;2023-04-05T10:03:24;100815.28;;;15.03;96.95
24666;BME280;29726;53.532;-1.478;2023-04-05T10:06:09;100802.13;;;14.95;97.43
24666;BME280;29726;53.532;-1.478;2023-04-05T10:08:53;100797.38;;;15.01;97.61
24666;BME280;29726;53.532;-1.478;2023-04-05T10:11:37;100806.66;;;15.07;97.92
24666;BME280;29726;53.532;-1.478;2023-04-05T10:14:22;100800.47;;;15.03;98.08
24666;BME280;29726;53.532;-1.478;2023-04-05T10:17:23;100804.91;;;15.09;98.41
24666;BME280;29726;53.532;-1.478;2023-04-05T10:20:17;100806.72;;;15.12;98.37
24666;BME280;29726;53.532;-1.478;2023-04-05T10:23:16;100793.84;;;15.06;98.81
24666;BME280;29726;53.532;-1.478;2023-04-05T10:26:16;100802.66;;;15.13;98.87
24666;BME280;29726;53.532;-1.478;2023-04-05T10:29:08;100789.84;;;15.12;99.09
24666;BME280;29726;53.532;-1.478;2023-04-05T10:32:06;100794.50;;;15.15;98.90
24666;BME280;29726;53.532;-1.478;2023-04-05T10:35:08;100773.88;;;15.04;98.54
24666;BME280;29726;53.532;-1.478;2023-04-05T10:38:21;100787.88;;;15.18;99.12
24666;BME280;29726;53.532;-1.478;2023-04-05T10:41:11;100796.31;;;15.18;99.14
24666;BME280;29726;53.532;-1.478;2023-04-05T10:43:56;100790.69;;;15.18;99.19
24666;BME280;29726;53.532;-1.478;2023-04-05T10:46:43;100772.19;;;15.12;99.26
24666;BME280;29726;53.532;-1.478;2023-04-05T10:49:32;100774.56;;;15.19;99.49
24666;BME280;29726;53.532;-1.478;2023-04-05T10:52:19;100785.41;;;15.26;99.35
24666;BME280;29726;53.532;-1.478;2023-04-05T10:55:07;100787.16;;;15.23;98.75
24666;BME280;29726;53.532;-1.478;2023-04-05T10:57:53;100782.59;;;15.26;98.94
24666;BME280;29726;53.532;-1.478;2023-04-05T11:00:39;100775.44;;;15.25;99.17
24666;BME280;29726;53.532;-1.478;2023-04-05T11:06:32;100775.81;;;15.32;99.45
24666;BME280;29726;53.532;-1.478;2023-04-05T11:09:19;100775.59;;;15.36;99.62
24666;BME280;29726;53.532;-1.478;2023-04-05T11:12:04;100767.38;;;15.32;99.35
24666;BME280;29726;53.532;-1.478;2023-04-05T11:14:48;100769.75;;;15.39;100.00
24666;BME280;29726;53.532;-1.478;2023-04-05T11:17:32;100746.41;;;15.33;99.67
24666;BME280;29726;53.532;-1.478;2023-04-05T11:20:16;100751.09;;;15.42;100.00
24666;BME280;29726;53.532;-1.478;2023-04-05T11:23:01;100760.59;;;15.44;99.90
24666;BME280;29726;53.532;-1.478;2023-04-05T11:25:55;100760.13;;;15.46;100.00
24666;BME280;29726;53.532;-1.478;2023-04-05T11:28:43;100758.25;;;15.43;99.44
24666;BME280;29726;53.532;-1.478;2023-04-05T11:31:27;100751.16;;;15.47;99.99
24666;BME280;29726;53.532;-1.478;2023-04-05T11:34:11;100743.50;;;15.48;99.68
24666;BME280;29726;53.532;-1.478;2023-04-05T11:36:55;100727.31;;;15.43;100.00
24666;BME280;29726;53.532;-1.478;2023-04-05T11:39:39;100724.28;;;15.46;100.00
24666;BME280;29726;53.532;-1.478;2023-04-05T11:42:24;100739.69;;;15.51;99.66
24666;BME280;29726;53.532;-1.478;2023-04-05T11:45:08;100753.84;;;15.56;100.00
24666;BME280;29726;53.532;-1.478;2023-04-05T11:47:52;100737.44;;;15.55;100.00
24666;BME280;29726;53.532;-1.478;2023-04-05T11:50:37;100730.81;;;15.58;100.00
24666;BME280;29726;53.532;-1.478;2023-04-05T11:53:22;100736.72;;;15.60;100.00
24666;BME280;29726;53.532;-1.478;2023-04-05T11:56:10;100732.91;;;15.63;100.00
24666;BME280;29726;53.532;-1.478;2023-04-05T11:58:59;100727.25;;;15.57;100.00
24666;BME280;29726;53.532;-1.478;2023-04-05T12:01:44;100726.78;;;15.64;100.00
24666;BME280;29726;53.532;-1.478;2023-04-05T12:04:28;100725.03;;;15.67;100.00
24666;BME280;29726;53.532;-1.478;2023-04-05T12:10:07;100714.97;;;15.60;100.00
24666;BME280;29726;53.532;-1.478;2023-04-05T12:12:54;100697.81;;;15.58;100.00
24666;BME280;29726;53.532;-1.478;2023-04-05T12:15:39;100725.59;;;15.71;100.00
24666;BME280;29726;53.532;-1.478;2023-04-05T12:18:24;100717.88;;;15.71;100.00
24666;BME280;29726;53.532;-1.478;2023-04-05T12:21:09;100705.63;;;15.74;100.00
24666;BME280;29726;53.532;-1.478;2023-04-05T12:23:54;100708.97;;;15.73;100.00
24666;BME280;29726;53.532;-1.478;2023-04-05T12:26:38;100700.00;;;15.74;100.00
24666;BME280;29726;53.532;-1.478;2023-04-05T12:29:22;100709.03;;;15.78;100.00
24666;BME280;29726;53.532;-1.478;2023-04-05T12:32:06;100710.56;;;15.79;100.00
24666;BME280;29726;53.532;-1.478;2023-04-05T12:34:53;100704.94;;;15.79;100.00
24666;BME280;29726;53.532;-1.478;2023-04-05T12:37:40;100704.94;;;15.79;100.00
24666;BME280;29726;53.532;-1.478;2023-04-05T12:40:26;100691.06;;;15.76;100.00
24666;BME280;29726;53.532;-1.478;2023-04-05T12:43:11;100707.03;;;15.84;100.00
24666;BME280;29726;53.532;-1.478;2023-04-05T12:46:07;100690.63;;;15.83;100.00
24666;BME280;29726;53.532;-1.478;2023-04-05T12:48:52;100703.69;;;15.86;100.00
24666;BME280;29726;53.532;-1.478;2023-04-05T12:51:39;100700.88;;;15.86;100.00
24666;BME280;29726;53.532;-1.478;2023-04-05T12:54:26;100705.50;;;15.89;100.00
24666;BME280;29726;53.532;-1.478;2023-04-05T12:57:10;100696.09;;;15.92;100.00
24666;BME280;29726;53.532;-1.478;2023-04-05T12:59:55;100680.91;;;15.84;100.00
24666;BME280;29726;53.532;-1.478;2023-04-05T13:02:39;100675.50;;;15.80;100.00
24666;BME280;29726;53.532;-1.478;2023-04-05T13:05:26;100699.94;;;15.94;100.00
24666;BME280;29726;53.532;-1.478;2023-04-05T13:08:14;100675.53;;;15.86;100.00
24666;BME280;29726;53.532;-1.478;2023-04-05T13:10:59;100681.00;;;15.95;100.00
24666;BME280;29726;53.532;-1.478;2023-04-05T13:13:43;100649.59;;;15.76;100.00
24666;BME280;29726;53.532;-1.478;2023-04-05T13:16:28;100660.47;;;15.89;100.00
24666;BME280;29726;53.532;-1.478;2023-04-05T13:19:12;100676.66;;;15.94;100.00
24666;BME280;29726;53.532;-1.478;2023-04-05T13:21:56;100665.13;;;15.92;100.00
24666;BME280;29726;53.532;-1.478;2023-04-05T13:24:40;100672.03;;;15.96;100.00
24666;BME280;29726;53.532;-1.478;2023-04-05T13:27:24;100660.00;;;15.96;100.00
24666;BME280;29726;53.532;-1.478;2023-04-05T13:30:08;100662.28;;;15.92;100.00
24666;BME280;29726;53.532;-1.478;2023-04-05T13:32:52;100672.31;;;15.98;100.00
24666;BME280;29726;53.532;-1.478;2023-04-05T13:35:36;100665.88;;;15.92;100.00
24666;BME280;29726;53.532;-1.478;2023-04-05T13:38:20;100661.03;;;15.93;100.00
24666;BME280;29726;53.532;-1.478;2023-04-05T13:41:04;100655.41;;;15.93;100.00
24666;BME280;29726;53.532;-1.478;2023-04-05T13:43:48;100649.75;;;15.93;100.00
24666;BME280;29726;53.532;-1.478;2023-04-05T13:46:32;100653.06;;;15.91;100.00
24666;BME280;29726;53.532;-1.478;2023-04-05T13:49:16;100649.75;;;15.93;100.00
24666;BME280;29726;53.532;-1.478;2023-04-05T13:52:00;100651.31;;;15.94;100.00
24666;BME280;29726;53.532;-1.478;2023-04-05T13:54:44;100641.31;;;15.93;100.00
24666;BME280;29726;53.532;-1.478;2023-04-05T13:57:28;100639.53;;;15.95;100.00
24666;BME280;29726;53.532;-1.478;2023-04-05T14:00:13;100636.97;;;15.97;100.00
24666;BME280;29726;53.532;-1.478;2023-04-05T14:02:56;100624.94;;;15.97;100.00
24666;BME280;29726;53.532;-1.478;2023-04-05T14:05:40;100630.06;;;15.98;100.00
24666;BME280;29726;53.532;-1.478;2023-04-05T14:08:24;100617.78;;;15.96;100.00
24666;BME280;29726;53.532;-1.478;2023-04-05T14:11:08;100618.03;;;15.98;100.00
24666;BME280;29726;53.532;-1.478;2023-04-05T14:13:52;100617.53;;;15.99;100.00
24666;BME280;29726;53.532;-1.478;2023-04-05T14:16:36;100607.00;;;15.94;100.00
24666;BME280;29726;53.532;-1.478;2023-04-05T14:19:21;100602.19;;;16.00;100.00
24666;BME280;29726;53.532;-1.478;2023-04-05T14:22:05;100613.72;;;16.02;100.00
24666;BME280;29726;53.532;-1.478;2023-04-05T14:24:50;100592.44;;;15.96;100.00
24666;BME280;29726;53.532;-1.478;2023-04-05T14:27:33;100598.59;;;16.00;100.00
24666;BME280;29726;53.532;-1.478;2023-04-05T14:30:20;100584.53;;;16.00;100.00